createdAt,value
2023-03-20T00:00:31.482Z,48.08
2023-03-20T00:01:35.167Z,46.25
2023-03-20T00:02:38.821Z,46.10
2023-03-20T00:03:41.223Z,46.08
2023-03-20T00:04:44.563Z,49.03
2023-03-20T00:05:46.861Z,45.80
2023-03-20T00:06:50.130Z,46.20
2023-03-20T00:07:52.790Z,45.80
2023-03-20T00:08:57.438Z,46.90
2023-03-20T00:09:59.989Z,46.83
2023-03-20T00:11:03.465Z,49.78
2023-03-20T00:12:06.293Z,52.45
2023-03-20T00:13:13.013Z,50.50
2023-03-20T00:14:16.600Z,47.83
2023-03-20T00:15:24.664Z,49.40
2023-03-20T00:16:30.669Z,51.53
2023-03-20T00:17:35.468Z,48.35
2023-03-20T00:18:38.589Z,47.70
2023-03-20T00:19:41.894Z,48.25
2023-03-20T00:20:44.260Z,46.78
2023-03-20T00:21:48.575Z,49.60
2023-03-20T00:22:51.695Z,49.28
2023-03-20T00:23:55.597Z,50.22
2023-03-20T00:24:57.942Z,50.85
2023-03-20T00:26:01.270Z,48.38
2023-03-20T00:27:03.590Z,51.13
2023-03-20T00:28:24.796Z,51.05
2023-03-20T00:29:28.234Z,51.00
2023-03-20T00:30:32.064Z,48.00
2023-03-20T00:31:36.328Z,48.17
2023-03-20T00:32:41.176Z,49.22
2023-03-20T00:33:44.194Z,48.75
2023-03-20T00:34:48.177Z,48.42
2023-03-20T00:35:50.601Z,45.75
2023-03-20T00:36:53.926Z,43.55
2023-03-20T00:37:56.954Z,45.70
2023-03-20T00:39:00.262Z,43.15
2023-03-20T00:40:02.648Z,46.75
2023-03-20T00:41:14.312Z,47.10
2023-03-20T00:42:21.232Z,53.13
2023-03-20T00:43:24.560Z,54.30
2023-03-20T00:44:28.339Z,53.40
2023-03-20T00:45:32.234Z,55.70
2023-03-20T00:46:37.348Z,55.88
2023-03-20T00:47:42.576Z,57.95
2023-03-20T00:48:45.051Z,58.05
2023-03-20T00:49:49.930Z,56.55
2023-03-20T00:50:52.644Z,56.92
2023-03-20T00:51:56.404Z,54.03
2023-03-20T00:52:59.201Z,53.08
2023-03-20T00:54:02.461Z,56.75
2023-03-20T00:55:05.030Z,55.13
2023-03-20T00:56:08.721Z,56.70
2023-03-20T00:57:13.478Z,57.53
2023-03-20T00:58:16.754Z,54.70
2023-03-20T00:59:21.316Z,55.50
2023-03-20T01:00:26.593Z,56.90
2023-03-20T01:01:29.364Z,56.95
2023-03-20T01:02:32.736Z,56.72
2023-03-20T01:03:38.534Z,55.33
2023-03-20T01:04:43.615Z,53.15
2023-03-20T01:05:46.703Z,51.72
2023-03-20T01:06:50.098Z,56.63
2023-03-20T01:07:52.508Z,57.75
2023-03-20T01:08:57.736Z,54.88
2023-03-20T01:10:00.055Z,53.13
2023-03-20T01:11:03.497Z,52.13
2023-03-20T01:12:07.878Z,52.63
2023-03-20T01:13:17.192Z,53.40
2023-03-20T01:14:19.527Z,48.90
2023-03-20T01:15:23.462Z,49.63
2023-03-20T01:16:27.114Z,48.88
2023-03-20T01:17:30.818Z,49.85
2023-03-20T01:18:33.265Z,50.13
2023-03-20T01:19:38.230Z,49.63
2023-03-20T01:20:40.801Z,51.53
2023-03-20T01:21:44.104Z,53.08
2023-03-20T01:22:46.552Z,54.05
2023-03-20T01:23:50.613Z,53.50
2023-03-20T01:24:52.995Z,50.67
2023-03-20T01:25:56.296Z,49.00
2023-03-20T01:26:59.013Z,52.47
2023-03-20T01:28:02.737Z,56.97
2023-03-20T01:29:05.235Z,55.58
2023-03-20T01:30:17.719Z,54.53
2023-03-20T01:31:21.425Z,55.20
2023-03-20T01:32:23.764Z,54.50
2023-03-20T01:33:29.422Z,54.00
2023-03-20T01:34:31.735Z,55.22
2023-03-20T01:35:37.004Z,57.17
2023-03-20T01:36:41.322Z,50.78
2023-03-20T01:37:45.120Z,52.80
2023-03-20T01:38:48.765Z,52.42
2023-03-20T01:39:52.113Z,52.15
2023-03-20T01:40:57.267Z,52.20
2023-03-20T01:42:00.890Z,52.05
2023-03-20T01:43:03.410Z,51.53
2023-03-20T01:44:15.355Z,50.92
2023-03-20T01:45:19.265Z,50.33
2023-03-20T01:46:25.274Z,48.70
2023-03-20T01:47:27.899Z,50.45
2023-03-20T01:48:37.768Z,54.45
2023-03-20T01:49:58.733Z,49.58
2023-03-20T01:51:03.361Z,46.38
2023-03-20T01:52:05.847Z,45.55
2023-03-20T01:53:11.640Z,42.30
2023-03-20T01:54:16.393Z,46.65
2023-03-20T01:55:19.903Z,44.85
2023-03-20T01:56:22.243Z,44.53
2023-03-20T01:57:26.528Z,45.22
2023-03-20T01:58:33.415Z,48.83
2023-03-20T01:59:38.734Z,48.55
2023-03-20T02:00:42.184Z,47.63
2023-03-20T02:01:45.437Z,49.20
2023-03-20T02:02:49.482Z,43.58
2023-03-20T02:03:51.985Z,39.90
2023-03-20T02:04:57.218Z,46.90
2023-03-20T02:06:00.271Z,42.78
2023-03-20T02:07:05.345Z,42.30
2023-03-20T02:08:13.704Z,43.03
2023-03-20T02:09:17.085Z,39.35
2023-03-20T02:10:19.669Z,41.90
2023-03-20T02:11:24.371Z,40.47
2023-03-20T02:12:26.703Z,40.97
2023-03-20T02:13:31.199Z,43.20
2023-03-20T02:14:33.547Z,44.58
2023-03-20T02:15:37.783Z,43.13
2023-03-20T02:16:40.800Z,40.55
2023-03-20T02:17:44.348Z,42.90
2023-03-20T02:18:48.985Z,36.25
2023-03-20T02:20:00.221Z,33.08
2023-03-20T02:21:17.408Z,33.35
2023-03-20T02:22:34.468Z,32.15
2023-03-20T02:23:51.170Z,31.83
2023-03-20T02:25:15.705Z,29.45
2023-03-20T02:26:22.515Z,32.90
2023-03-20T02:27:31.944Z,37.83
2023-03-20T02:28:46.715Z,34.80
2023-03-20T02:30:01.741Z,34.35
2023-03-20T02:31:17.680Z,36.88
2023-03-20T02:32:48.298Z,32.95
2023-03-20T02:34:02.768Z,34.78
2023-03-20T02:35:26.255Z,36.83
2023-03-20T02:36:42.382Z,36.47
2023-03-20T02:38:02.128Z,33.67
2023-03-20T02:39:14.914Z,35.85
2023-03-20T02:40:22.274Z,37.75
2023-03-20T02:41:26.596Z,37.40
2023-03-20T02:42:36.392Z,34.25
2023-03-20T02:43:43.623Z,33.60
2023-03-20T02:44:49.193Z,36.10
2023-03-20T02:45:54.881Z,37.63
2023-03-20T02:47:00.738Z,38.10
2023-03-20T02:48:08.515Z,35.63
2023-03-20T02:49:17.615Z,36.88
2023-03-20T02:50:22.364Z,35.25
2023-03-20T02:51:32.815Z,38.20
2023-03-20T02:52:40.700Z,36.67
2023-03-20T02:53:51.440Z,36.63
2023-03-20T02:54:58.369Z,31.30
2023-03-20T02:56:06.256Z,31.90
2023-03-20T02:57:10.316Z,30.40
2023-03-20T02:58:16.552Z,31.20
2023-03-20T02:59:23.072Z,31.33
2023-03-20T03:00:29.516Z,31.00
2023-03-20T03:01:33.838Z,31.35
2023-03-20T03:02:39.505Z,33.28
2023-03-20T03:03:44.921Z,31.67
2023-03-20T03:04:51.816Z,33.20
2023-03-20T03:05:55.341Z,33.22
2023-03-20T03:06:59.380Z,34.20
2023-03-20T03:08:03.364Z,34.17
2023-03-20T03:09:09.492Z,37.17
2023-03-20T03:10:12.967Z,35.45
2023-03-20T03:11:17.567Z,36.80
2023-03-20T03:12:21.908Z,37.20
2023-03-20T03:13:29.122Z,37.47
2023-03-20T03:14:34.524Z,35.70
2023-03-20T03:15:40.521Z,38.00
2023-03-20T03:16:43.648Z,37.30
2023-03-20T03:17:49.242Z,35.28
2023-03-20T03:18:54.324Z,39.58
2023-03-20T03:19:59.112Z,39.67
2023-03-20T03:21:03.284Z,41.88
2023-03-20T03:22:07.722Z,39.63
2023-03-20T03:23:15.745Z,41.33
2023-03-20T03:24:39.722Z,40.85
2023-03-20T03:25:44.632Z,40.75
2023-03-20T03:26:46.918Z,41.40
2023-03-20T03:27:53.621Z,43.58
2023-03-20T03:28:57.979Z,42.90
2023-03-20T03:30:03.757Z,43.60
2023-03-20T03:31:07.666Z,43.47
2023-03-20T03:32:23.278Z,44.08
2023-03-20T03:33:26.969Z,42.28
2023-03-20T03:34:31.246Z,43.28
2023-03-20T03:35:33.946Z,45.50
2023-03-20T03:36:41.386Z,42.67
2023-03-20T03:37:47.344Z,43.38
2023-03-20T03:38:56.352Z,45.17
2023-03-20T03:40:04.646Z,41.67
2023-03-20T03:41:14.085Z,42.75
2023-03-20T03:42:21.615Z,42.45
2023-03-20T03:43:27.808Z,41.50
2023-03-20T03:44:32.963Z,41.28
2023-03-20T03:45:39.907Z,41.45
2023-03-20T03:46:45.120Z,38.90
2023-03-20T03:47:52.136Z,40.00
2023-03-20T03:48:56.438Z,39.50
2023-03-20T03:50:01.728Z,41.17
2023-03-20T03:51:06.691Z,42.47
2023-03-20T03:52:11.958Z,38.38
2023-03-20T03:53:14.906Z,39.75
2023-03-20T03:54:19.956Z,36.78
2023-03-20T03:55:25.346Z,37.45
2023-03-20T03:56:30.055Z,38.75
2023-03-20T03:57:34.826Z,38.92
2023-03-20T03:58:39.695Z,36.20
2023-03-20T03:59:44.274Z,36.97
2023-03-20T04:00:50.530Z,37.03
2023-03-20T04:01:53.366Z,36.40
2023-03-20T04:02:57.527Z,37.90
2023-03-20T04:04:01.449Z,36.50
2023-03-20T04:05:05.462Z,35.70
2023-03-20T04:06:10.261Z,36.03
2023-03-20T04:07:15.451Z,35.42
2023-03-20T04:08:17.756Z,33.83
2023-03-20T04:09:21.103Z,35.20
2023-03-20T04:10:24.817Z,35.65
2023-03-20T04:11:29.446Z,35.03
2023-03-20T04:12:34.129Z,34.45
2023-03-20T04:13:37.426Z,33.15
2023-03-20T04:14:39.725Z,32.15
2023-03-20T04:15:43.012Z,35.05
2023-03-20T04:16:45.441Z,35.38
2023-03-20T04:17:49.018Z,34.03
2023-03-20T04:18:51.340Z,32.85
2023-03-20T04:19:54.656Z,33.90
2023-03-20T04:20:56.979Z,32.72
2023-03-20T04:22:00.473Z,32.28
2023-03-20T04:23:04.672Z,32.17
2023-03-20T04:24:08.372Z,31.88
2023-03-20T04:25:11.316Z,34.00
2023-03-20T04:26:15.967Z,32.65
2023-03-20T04:27:18.259Z,32.88
2023-03-20T04:28:21.530Z,31.63
2023-03-20T04:29:24.392Z,27.27
2023-03-20T04:30:27.724Z,29.45
2023-03-20T04:31:30.631Z,31.67
2023-03-20T04:32:33.986Z,30.83
2023-03-20T04:33:36.317Z,31.95
2023-03-20T04:34:39.644Z,31.30
2023-03-20T04:35:42.013Z,28.92
2023-03-20T04:36:45.603Z,30.33
2023-03-20T04:37:47.953Z,30.95
2023-03-20T04:38:51.242Z,30.30
2023-03-20T04:39:53.528Z,30.40
2023-03-20T04:40:56.822Z,31.58
2023-03-20T04:42:00.508Z,27.80
2023-03-20T04:43:03.769Z,28.23
2023-03-20T04:44:06.094Z,28.77
2023-03-20T04:45:10.150Z,28.77
2023-03-20T04:46:12.457Z,28.13
2023-03-20T04:47:16.187Z,28.08
2023-03-20T04:48:18.538Z,29.98
2023-03-20T04:49:21.812Z,29.85
2023-03-20T04:50:24.210Z,28.52
2023-03-20T04:51:27.474Z,27.88
2023-03-20T04:52:29.794Z,28.08
2023-03-20T04:53:33.118Z,27.20
2023-03-20T04:54:35.426Z,27.67
2023-03-20T04:55:38.747Z,28.33
2023-03-20T04:56:41.071Z,28.95
2023-03-20T04:57:45.929Z,27.60
2023-03-20T04:58:48.273Z,28.48
2023-03-20T04:59:51.553Z,27.65
2023-03-20T05:00:53.863Z,27.35
2023-03-20T05:01:57.246Z,26.65
2023-03-20T05:02:59.898Z,27.40
2023-03-20T05:04:03.273Z,27.08
2023-03-20T05:05:06.020Z,27.15
2023-03-20T05:06:09.769Z,26.63
2023-03-20T05:07:12.127Z,26.20
2023-03-20T05:08:15.566Z,25.52
2023-03-20T05:09:18.186Z,27.23
2023-03-20T05:10:21.488Z,25.52
2023-03-20T05:11:23.785Z,27.30
2023-03-20T05:12:28.126Z,28.50
2023-03-20T05:13:31.785Z,27.15
2023-03-20T05:14:35.164Z,27.08
2023-03-20T05:15:37.851Z,27.35
2023-03-20T05:16:41.257Z,24.63
2023-03-20T05:17:43.559Z,25.95
2023-03-20T05:18:46.863Z,27.20
2023-03-20T05:19:49.939Z,28.15
2023-03-20T05:20:53.197Z,30.73
2023-03-20T05:21:55.647Z,28.15
2023-03-20T05:22:58.922Z,28.42
2023-03-20T05:24:01.568Z,28.58
2023-03-20T05:25:04.994Z,28.55
2023-03-20T05:26:07.524Z,29.02
2023-03-20T05:27:10.825Z,27.02
2023-03-20T05:28:13.190Z,27.08
2023-03-20T05:29:17.833Z,27.75
2023-03-20T05:30:20.159Z,26.95
2023-03-20T05:31:23.619Z,28.52
2023-03-20T05:32:26.164Z,28.50
2023-03-20T05:33:29.434Z,27.88
2023-03-20T05:34:31.750Z,26.27
2023-03-20T05:35:35.438Z,26.05
2023-03-20T05:36:37.976Z,26.55
2023-03-20T05:37:41.474Z,25.27
2023-03-20T05:38:43.831Z,26.60
2023-03-20T05:39:47.124Z,25.25
2023-03-20T05:40:49.594Z,26.17
2023-03-20T05:41:52.943Z,26.13
2023-03-20T05:42:55.289Z,23.20
2023-03-20T05:43:58.596Z,25.83
2023-03-20T05:45:02.298Z,24.13
2023-03-20T05:46:05.720Z,24.67
2023-03-20T05:47:08.156Z,24.35
2023-03-20T05:48:11.524Z,24.95
2023-03-20T05:49:13.927Z,26.45
2023-03-20T05:50:17.527Z,25.10
2023-03-20T05:51:19.852Z,25.60
2023-03-20T05:52:23.232Z,24.83
2023-03-20T05:53:25.682Z,25.45
2023-03-20T05:54:28.976Z,26.00
2023-03-20T05:55:31.328Z,26.40
2023-03-20T05:56:34.655Z,30.50
2023-03-20T05:57:37.067Z,26.15
2023-03-20T05:58:40.337Z,28.10
2023-03-20T05:59:43.028Z,29.42
2023-03-20T06:00:47.700Z,27.23
2023-03-20T06:01:50.035Z,28.13
2023-03-20T06:02:53.432Z,31.80
2023-03-20T06:03:56.038Z,29.45
2023-03-20T06:04:59.386Z,28.48
2023-03-20T06:06:01.663Z,26.38
2023-03-20T06:07:06.285Z,27.45
2023-03-20T06:08:08.622Z,27.30
2023-03-20T06:09:11.914Z,26.83
2023-03-20T06:10:14.269Z,27.27
2023-03-20T06:11:17.583Z,25.95
2023-03-20T06:12:19.913Z,27.33
2023-03-20T06:13:23.248Z,27.10
2023-03-20T06:14:26.061Z,26.45
2023-03-20T06:15:29.743Z,24.25
2023-03-20T06:16:33.401Z,25.27
2023-03-20T06:17:36.727Z,25.10
2023-03-20T06:18:39.394Z,26.25
2023-03-20T06:19:42.737Z,25.98
2023-03-20T06:20:45.274Z,26.73
2023-03-20T06:21:48.592Z,25.83
2023-03-20T06:22:51.184Z,26.23
2023-03-20T06:23:54.856Z,25.85
2023-03-20T06:24:57.501Z,24.88
2023-03-20T06:26:00.905Z,26.58
2023-03-20T06:27:03.235Z,25.70
2023-03-20T06:28:06.740Z,25.23
2023-03-20T06:29:09.074Z,24.50
2023-03-20T06:30:13.160Z,24.35
2023-03-20T06:31:15.544Z,23.98
2023-03-20T06:32:20.397Z,23.52
2023-03-20T06:33:22.764Z,25.25
2023-03-20T06:34:26.078Z,26.08
2023-03-20T06:35:31.223Z,26.17
2023-03-20T06:36:34.598Z,27.45
2023-03-20T06:37:37.018Z,29.00
2023-03-20T06:38:40.351Z,28.70
2023-03-20T06:39:42.753Z,29.00
2023-03-20T06:40:46.231Z,30.02
2023-03-20T06:41:48.542Z,30.63
2023-03-20T06:42:51.906Z,32.45
2023-03-20T06:43:54.219Z,37.50
2023-03-20T06:44:57.520Z,39.13
2023-03-20T06:46:00.976Z,38.40
2023-03-20T06:47:03.288Z,40.15
2023-03-20T06:48:09.631Z,38.15
2023-03-20T06:49:11.917Z,38.50
2023-03-20T06:50:15.702Z,39.58
2023-03-20T06:51:18.054Z,33.88
2023-03-20T06:52:22.759Z,32.97
2023-03-20T06:53:25.105Z,33.75
2023-03-20T06:54:28.589Z,30.42
2023-03-20T06:55:31.243Z,28.75
2023-03-20T06:56:34.546Z,25.88
2023-03-20T06:57:37.137Z,25.02
2023-03-20T06:58:40.505Z,24.20
2023-03-20T06:59:42.822Z,26.00
2023-03-20T07:00:46.662Z,25.35
2023-03-20T07:01:49.067Z,25.92
2023-03-20T07:02:52.387Z,22.10
2023-03-20T07:03:57.033Z,23.92
2023-03-20T07:04:59.371Z,23.13
2023-03-20T07:06:03.119Z,24.42
2023-03-20T07:07:06.406Z,22.60
2023-03-20T07:08:08.755Z,23.08
2023-03-20T07:09:12.086Z,23.83
2023-03-20T07:10:14.410Z,23.58
2023-03-20T07:11:17.718Z,23.50
2023-03-20T07:12:26.504Z,22.63
2023-03-20T07:13:29.799Z,22.90
2023-03-20T07:14:32.222Z,22.90
2023-03-20T07:15:35.710Z,22.05
2023-03-20T07:16:38.221Z,21.02
2023-03-20T07:17:41.584Z,19.77
2023-03-20T07:18:43.884Z,20.77
2023-03-20T07:19:48.534Z,20.90
2023-03-20T07:20:52.190Z,20.10
2023-03-20T07:21:58.657Z,20.10
2023-03-20T07:23:01.928Z,19.77
2023-03-20T07:24:04.329Z,19.63
2023-03-20T07:25:08.379Z,19.15
2023-03-20T07:26:10.713Z,18.50
2023-03-20T07:27:14.038Z,20.73
2023-03-20T07:28:16.336Z,19.70
2023-03-20T07:29:19.607Z,18.95
2023-03-20T07:30:22.933Z,18.88
2023-03-20T07:31:26.266Z,18.77
2023-03-20T07:32:29.568Z,17.48
2023-03-20T07:33:33.003Z,15.77
2023-03-20T07:34:35.627Z,16.58
2023-03-20T07:35:40.481Z,17.05
2023-03-20T07:36:44.076Z,16.13
2023-03-20T07:37:46.567Z,16.27
2023-03-20T07:38:49.905Z,14.90
2023-03-20T07:39:52.231Z,15.55
2023-03-20T07:40:56.196Z,14.63
2023-03-20T07:41:58.530Z,14.98
2023-03-20T07:43:02.244Z,15.18
2023-03-20T07:44:04.670Z,14.57
2023-03-20T07:45:09.399Z,14.48
2023-03-20T07:46:11.870Z,14.38
2023-03-20T07:47:15.165Z,13.50
2023-03-20T07:48:17.474Z,14.93
2023-03-20T07:49:21.561Z,14.23
2023-03-20T07:50:24.857Z,13.52
2023-03-20T07:51:29.496Z,12.68
2023-03-20T07:52:31.792Z,14.13
2023-03-20T07:53:35.183Z,13.88
2023-03-20T07:54:37.474Z,14.98
2023-03-20T07:55:40.770Z,14.55
2023-03-20T07:56:43.275Z,13.60
2023-03-20T07:57:46.565Z,14.20
2023-03-20T07:58:48.894Z,13.60
2023-03-20T07:59:52.196Z,14.07
2023-03-20T08:00:54.899Z,14.10
2023-03-20T08:01:58.203Z,15.63
2023-03-20T08:03:01.634Z,14.65
2023-03-20T08:04:04.195Z,14.32
2023-03-20T08:05:08.029Z,15.48
2023-03-20T08:06:11.720Z,14.85
2023-03-20T08:07:16.155Z,14.90
2023-03-20T08:08:19.574Z,15.02
2023-03-20T08:09:23.048Z,15.25
2023-03-20T08:10:25.588Z,15.75
2023-03-20T08:11:29.008Z,15.63
2023-03-20T08:12:31.308Z,15.80
2023-03-20T08:13:34.825Z,15.95
2023-03-20T08:14:38.731Z,16.15
2023-03-20T08:15:42.065Z,16.60
2023-03-20T08:16:45.433Z,16.40
2023-03-20T08:17:48.757Z,17.30
2023-03-20T08:18:52.801Z,17.17
2023-03-20T08:19:56.123Z,16.80
2023-03-20T08:20:59.497Z,16.80
2023-03-20T08:22:02.787Z,16.92
2023-03-20T08:23:07.849Z,17.13
2023-03-20T08:24:11.302Z,16.83
2023-03-20T08:25:13.662Z,17.45
2023-03-20T08:26:17.192Z,18.02
2023-03-20T08:27:19.666Z,19.48
2023-03-20T08:28:36.363Z,18.75
2023-03-20T08:29:46.798Z,17.85
2023-03-20T08:30:49.129Z,18.35
2023-03-20T08:31:52.444Z,18.88
2023-03-20T08:32:55.845Z,19.00
2023-03-20T08:33:59.416Z,18.85
2023-03-20T08:35:01.764Z,19.35
2023-03-20T08:36:05.281Z,19.13
2023-03-20T08:37:09.925Z,18.50
2023-03-20T08:38:14.404Z,18.15
2023-03-20T08:39:17.665Z,17.30
2023-03-20T08:40:20.047Z,16.98
2023-03-20T08:41:23.308Z,16.75
2023-03-20T08:42:25.668Z,17.02
2023-03-20T08:43:29.000Z,16.73
2023-03-20T08:44:31.291Z,16.80
2023-03-20T08:45:34.728Z,15.48
2023-03-20T08:46:38.183Z,15.82
2023-03-20T08:47:41.454Z,15.95
2023-03-20T08:48:43.750Z,14.27
2023-03-20T08:49:47.203Z,14.45
2023-03-20T08:50:49.597Z,14.23
2023-03-20T08:51:52.983Z,13.68
2023-03-20T08:52:55.339Z,13.95
2023-03-20T08:53:59.988Z,14.73
2023-03-20T08:55:03.873Z,12.95
2023-03-20T08:56:07.618Z,13.55
2023-03-20T08:57:11.143Z,13.15
2023-03-20T08:58:14.435Z,13.05
2023-03-20T08:59:17.758Z,13.77
2023-03-20T09:00:21.375Z,13.07
2023-03-20T09:01:23.799Z,13.70
2023-03-20T09:02:27.205Z,12.02
2023-03-20T09:03:30.572Z,12.07
2023-03-20T09:04:33.867Z,12.25
2023-03-20T09:05:37.663Z,11.95
2023-03-20T09:06:41.762Z,12.45
2023-03-20T09:07:44.144Z,11.68
2023-03-20T09:08:47.615Z,11.57
2023-03-20T09:09:52.230Z,10.98
2023-03-20T09:10:55.516Z,11.02
2023-03-20T09:11:58.565Z,9.07
2023-03-20T09:13:09.585Z,9.73
2023-03-20T09:14:19.110Z,10.38
2023-03-20T09:15:22.391Z,11.18
2023-03-20T09:16:24.760Z,10.80
2023-03-20T09:17:28.130Z,10.48
2023-03-20T09:18:30.696Z,9.13
2023-03-20T09:19:34.031Z,8.70
2023-03-20T09:20:36.741Z,7.72
2023-03-20T09:21:40.225Z,8.75
2023-03-20T09:22:45.148Z,7.97
2023-03-20T09:23:48.449Z,8.27
2023-03-20T09:24:53.095Z,8.40
2023-03-20T09:25:56.398Z,8.32
2023-03-20T09:26:58.712Z,9.02
2023-03-20T09:28:02.018Z,8.80
2023-03-20T09:29:05.625Z,8.82
2023-03-20T09:30:08.801Z,8.93
2023-03-20T09:31:12.380Z,7.97
2023-03-20T09:32:15.664Z,8.27
2023-03-20T09:33:19.607Z,7.68
2023-03-20T09:34:22.921Z,8.57
2023-03-20T09:35:26.226Z,9.30
2023-03-20T09:36:28.505Z,9.30
2023-03-20T09:37:31.847Z,9.43
2023-03-20T09:38:35.179Z,9.20
2023-03-20T09:39:37.478Z,9.85
2023-03-20T09:40:50.233Z,8.88
2023-03-20T09:41:57.494Z,10.18
2023-03-20T09:43:07.133Z,9.73
2023-03-20T09:44:14.368Z,9.60
2023-03-20T09:45:19.089Z,10.77
2023-03-20T09:46:27.894Z,10.93
2023-03-20T09:47:34.008Z,10.25
2023-03-20T09:48:39.790Z,9.55
2023-03-20T09:49:46.782Z,9.38
2023-03-20T09:50:56.658Z,9.40
2023-03-20T09:52:00.803Z,8.80
2023-03-20T09:53:07.265Z,8.73
2023-03-20T09:54:13.540Z,8.75
2023-03-20T09:55:18.777Z,7.95
2023-03-20T09:56:23.924Z,8.07
2023-03-20T09:57:28.928Z,7.45
2023-03-20T09:58:33.720Z,8.32
2023-03-20T09:59:38.151Z,8.30
2023-03-20T10:00:41.395Z,8.55
2023-03-20T10:01:49.347Z,9.70
2023-03-20T10:02:54.231Z,9.18
2023-03-20T10:03:58.612Z,7.60
2023-03-20T10:05:02.017Z,7.88
2023-03-20T10:06:06.932Z,8.13
2023-03-20T10:07:12.480Z,8.65
2023-03-20T10:08:17.455Z,7.57
2023-03-20T10:09:23.245Z,7.32
2023-03-20T10:10:28.685Z,7.75
2023-03-20T10:11:41.671Z,7.90
2023-03-20T10:12:49.665Z,7.57
2023-03-20T10:14:02.022Z,7.88
2023-03-20T10:15:08.981Z,7.88
2023-03-20T10:16:16.112Z,7.75
2023-03-20T10:17:25.562Z,7.40
2023-03-20T10:18:29.761Z,8.18
2023-03-20T10:19:33.171Z,7.50
2023-03-20T10:20:39.676Z,7.15
2023-03-20T10:21:44.488Z,6.20
2023-03-20T10:22:49.909Z,6.93
2023-03-20T10:23:58.275Z,6.22
2023-03-20T10:25:04.856Z,6.97
2023-03-20T10:26:08.823Z,6.50
2023-03-20T10:27:17.921Z,6.70
2023-03-20T10:28:23.660Z,7.82
2023-03-20T10:29:33.887Z,7.38
2023-03-20T10:30:44.386Z,7.20
2023-03-20T10:31:49.674Z,7.32
2023-03-20T10:32:56.957Z,8.38
2023-03-20T10:34:05.202Z,7.50
2023-03-20T10:35:14.935Z,7.25
2023-03-20T10:36:26.846Z,7.57
2023-03-20T10:37:35.740Z,7.50
2023-03-20T10:38:41.538Z,7.80
2023-03-20T10:39:50.614Z,7.68
2023-03-20T10:40:54.829Z,7.57
2023-03-20T10:41:58.360Z,8.27
2023-03-20T10:43:04.529Z,8.13
2023-03-20T10:44:12.728Z,7.90
2023-03-20T10:45:23.452Z,7.63
2023-03-20T10:46:28.908Z,8.65
2023-03-20T10:47:34.090Z,7.95
2023-03-20T10:48:40.051Z,7.65
2023-03-20T10:49:43.876Z,8.02
2023-03-20T10:50:49.086Z,8.07
2023-03-20T10:51:53.228Z,8.32
2023-03-20T10:52:58.095Z,7.75
2023-03-20T10:54:03.936Z,8.82
2023-03-20T10:55:07.726Z,8.45
2023-03-20T10:56:15.144Z,9.05
2023-03-20T10:57:23.110Z,9.18
2023-03-20T10:58:28.716Z,9.85
2023-03-20T10:59:35.837Z,8.75
2023-03-20T11:00:38.474Z,9.65
2023-03-20T11:01:41.869Z,9.57
2023-03-20T11:02:44.214Z,10.48
2023-03-20T11:03:47.619Z,10.80
2023-03-20T11:04:50.964Z,12.18
2023-03-20T11:06:08.548Z,12.00
2023-03-20T11:07:17.783Z,11.25
2023-03-20T11:08:23.594Z,10.95
2023-03-20T11:09:29.891Z,11.18
2023-03-20T11:10:32.614Z,11.32
2023-03-20T11:11:36.383Z,11.02
2023-03-20T11:12:39.618Z,10.75
2023-03-20T11:13:45.426Z,11.85
2023-03-20T11:14:47.730Z,12.70
2023-03-20T11:15:53.740Z,13.00
2023-03-20T11:16:57.733Z,11.75
2023-03-20T11:18:01.882Z,12.82
2023-03-20T11:19:08.499Z,13.35
2023-03-20T11:20:11.859Z,13.20
2023-03-20T11:21:18.550Z,12.63
2023-03-20T11:22:25.241Z,12.48
2023-03-20T11:23:30.279Z,11.68
2023-03-20T11:24:37.671Z,12.02
2023-03-20T11:25:48.076Z,11.32
2023-03-20T11:26:52.780Z,11.90
2023-03-20T11:27:55.953Z,11.57
2023-03-20T11:29:01.752Z,13.35
2023-03-20T11:30:07.391Z,12.20
2023-03-20T11:31:17.986Z,12.32
2023-03-20T11:32:24.053Z,11.75
2023-03-20T11:33:27.145Z,12.95
2023-03-20T11:34:41.044Z,11.75
2023-03-20T11:35:45.976Z,12.48
2023-03-20T11:37:08.881Z,11.77
2023-03-20T11:38:15.973Z,11.20
2023-03-20T11:39:24.554Z,12.75
2023-03-20T11:40:32.036Z,13.10
2023-03-20T11:41:35.522Z,13.70
2023-03-20T11:42:38.963Z,12.85
2023-03-20T11:43:42.513Z,12.52
2023-03-20T11:44:58.152Z,11.90
2023-03-20T11:46:04.445Z,12.40
2023-03-20T11:47:12.146Z,10.80
2023-03-20T11:48:18.672Z,10.55
2023-03-20T11:49:22.308Z,11.90
2023-03-20T11:50:31.725Z,12.20
2023-03-20T11:51:36.301Z,10.93
2023-03-20T11:52:40.373Z,11.63
2023-03-20T11:53:48.034Z,10.77
2023-03-20T11:54:51.568Z,10.30
2023-03-20T11:56:05.812Z,10.95
2023-03-20T11:57:09.149Z,10.70
2023-03-20T11:58:16.597Z,10.52
2023-03-20T11:59:20.440Z,11.13
2023-03-20T12:00:25.944Z,11.55
2023-03-20T12:01:29.013Z,11.70
2023-03-20T12:02:32.452Z,11.00
2023-03-20T12:03:41.037Z,10.85
2023-03-20T12:04:47.172Z,11.73
2023-03-20T12:05:49.504Z,11.32
2023-03-20T12:06:55.036Z,11.82
2023-03-20T12:07:59.141Z,12.13
2023-03-20T12:09:04.681Z,10.65
2023-03-20T12:10:09.185Z,10.18
2023-03-20T12:11:20.146Z,12.02
2023-03-20T12:12:32.223Z,10.68
2023-03-20T12:13:37.077Z,11.85
2023-03-20T12:14:43.322Z,10.85
2023-03-20T12:15:48.271Z,10.35
2023-03-20T12:16:53.340Z,10.38
2023-03-20T12:17:58.337Z,9.52
2023-03-20T12:19:03.021Z,10.15
2023-03-20T12:20:08.994Z,8.63
2023-03-20T12:21:14.088Z,8.13
2023-03-20T12:22:21.669Z,9.20
2023-03-20T12:23:30.657Z,8.02
2023-03-20T12:24:37.842Z,8.35
2023-03-20T12:25:45.307Z,6.75
2023-03-20T12:26:53.007Z,6.93
2023-03-20T12:28:04.362Z,6.65
2023-03-20T12:29:10.031Z,7.18
2023-03-20T12:30:15.013Z,6.97
2023-03-20T12:31:26.476Z,6.57
2023-03-20T12:32:31.785Z,6.80
2023-03-20T12:33:43.992Z,6.10
2023-03-20T12:34:49.657Z,8.00
2023-03-20T12:35:53.059Z,6.40
2023-03-20T12:36:57.586Z,6.90
2023-03-20T12:38:00.249Z,6.45
2023-03-20T12:39:04.637Z,7.53
2023-03-20T12:40:07.986Z,8.10
2023-03-20T12:41:13.641Z,8.20
2023-03-20T12:42:20.168Z,8.10
2023-03-20T12:43:27.078Z,8.68
2023-03-20T12:44:38.245Z,9.23
2023-03-20T12:45:44.126Z,9.40
2023-03-20T12:46:53.355Z,12.77
2023-03-20T12:48:03.116Z,10.07
2023-03-20T12:49:12.161Z,8.52
2023-03-20T12:50:18.977Z,8.18
2023-03-20T12:51:24.468Z,7.05
2023-03-20T12:52:31.452Z,8.13
2023-03-20T12:53:40.444Z,6.88
2023-03-20T12:54:49.870Z,7.35
2023-03-20T12:55:59.052Z,7.63
2023-03-20T12:57:05.495Z,6.72
2023-03-20T12:58:15.378Z,6.13
2023-03-20T12:59:21.904Z,5.70
2023-03-20T13:00:32.105Z,6.10
2023-03-20T13:01:38.793Z,6.57
2023-03-20T13:02:48.698Z,8.07
2023-03-20T13:03:58.897Z,10.15
2023-03-20T13:05:10.511Z,10.48
2023-03-20T13:06:16.658Z,8.68
2023-03-20T13:07:19.980Z,10.23
2023-03-20T13:08:32.529Z,10.35
2023-03-20T13:09:48.161Z,8.02
2023-03-20T13:10:58.528Z,7.45
2023-03-20T13:12:08.069Z,10.07
2023-03-20T13:13:15.385Z,6.80
2023-03-20T13:14:26.485Z,7.40
2023-03-20T13:15:32.651Z,5.90
2023-03-20T13:16:42.208Z,6.20
2023-03-20T13:17:48.024Z,5.53
2023-03-20T13:18:55.045Z,6.43
2023-03-20T13:20:04.456Z,7.18
2023-03-20T13:21:10.697Z,6.65
2023-03-20T13:22:17.149Z,7.00
2023-03-20T13:23:22.097Z,5.32
2023-03-20T13:24:32.795Z,6.55
2023-03-20T13:25:54.829Z,7.15
2023-03-20T13:27:02.530Z,5.63
2023-03-20T13:28:10.031Z,6.65
2023-03-20T13:29:17.055Z,5.55
2023-03-20T13:30:24.413Z,5.90
2023-03-20T13:31:41.397Z,5.15
2023-03-20T13:32:52.447Z,4.10
2023-03-20T13:34:00.288Z,4.22
2023-03-20T13:35:23.279Z,4.35
2023-03-20T13:36:28.032Z,4.38
2023-03-20T13:37:36.060Z,4.63
2023-03-20T13:38:42.138Z,4.82
2023-03-20T13:39:47.597Z,3.83
2023-03-20T13:40:54.299Z,4.63
2023-03-20T13:41:57.665Z,4.32
2023-03-20T13:43:02.679Z,4.57
2023-03-20T13:44:06.429Z,3.55
2023-03-20T13:45:16.275Z,3.38
2023-03-20T13:46:22.017Z,3.90
2023-03-20T13:47:27.384Z,4.13
2023-03-20T13:48:35.021Z,3.55
2023-03-20T13:49:39.588Z,3.50
2023-03-20T13:50:45.849Z,3.63
2023-03-20T13:51:54.780Z,3.30
2023-03-20T13:53:00.784Z,3.30
2023-03-20T13:54:08.753Z,3.30
2023-03-20T13:55:17.278Z,3.70
2023-03-20T13:56:24.473Z,3.17
2023-03-20T13:57:34.518Z,3.45
2023-03-20T13:58:56.811Z,3.05
2023-03-20T14:00:04.385Z,2.85
2023-03-20T14:01:09.951Z,3.42
2023-03-20T14:02:18.881Z,3.72
2023-03-20T14:03:26.118Z,3.30
2023-03-20T14:04:31.917Z,3.13
2023-03-20T14:05:37.030Z,3.72